createdAt,value
2018-12-19T00:00:40.856Z,10.63
2018-12-19T00:03:09.442Z,9.50
2018-12-19T00:05:38.035Z,8.98
2018-12-19T00:08:06.788Z,8.60
2018-12-19T00:10:35.406Z,9.95
2018-12-19T00:13:04.122Z,8.58
2018-12-19T00:15:32.840Z,8.03
2018-12-19T00:18:01.513Z,8.95
2018-12-19T00:20:30.156Z,10.05
2018-12-19T00:22:58.761Z,10.05
2018-12-19T00:25:27.383Z,10.08
2018-12-19T00:27:56.138Z,10.43
2018-12-19T00:30:24.714Z,9.23
2018-12-19T00:32:53.451Z,9.15
2018-12-19T00:35:22.219Z,8.80
2018-12-19T00:37:50.867Z,10.95
2018-12-19T00:40:19.567Z,9.05
2018-12-19T00:42:48.197Z,9.40
2018-12-19T00:45:16.781Z,15.50
2018-12-19T00:47:45.374Z,8.80
2018-12-19T00:50:14.112Z,8.98
2018-12-19T00:52:42.760Z,8.38
2018-12-19T00:55:11.330Z,9.38
2018-12-19T00:57:39.972Z,8.35
2018-12-19T01:00:09.605Z,8.53
2018-12-19T01:02:38.332Z,9.95
2018-12-19T01:05:07.128Z,7.90
2018-12-19T01:07:35.745Z,10.58
2018-12-19T01:10:05.137Z,9.38
2018-12-19T01:12:33.728Z,8.05
2018-12-19T01:15:03.234Z,7.83
2018-12-19T01:17:31.790Z,8.08
2018-12-19T01:20:00.497Z,8.65
2018-12-19T01:22:29.126Z,7.28
2018-12-19T01:24:57.811Z,8.90
2018-12-19T01:27:26.537Z,7.25
2018-12-19T01:29:55.173Z,8.13
2018-12-19T01:32:23.802Z,8.40
2018-12-19T01:34:52.438Z,9.43
2018-12-19T01:37:21.071Z,8.45
2018-12-19T01:39:52.211Z,8.93
2018-12-19T01:42:20.852Z,7.92
2018-12-19T01:44:49.509Z,8.93
2018-12-19T01:47:18.092Z,9.55
2018-12-19T01:49:46.803Z,8.88
2018-12-19T01:52:15.420Z,7.78
2018-12-19T01:54:44.004Z,7.37
2018-12-19T01:57:12.854Z,7.87
2018-12-19T01:59:41.451Z,8.15
2018-12-19T02:02:10.108Z,8.80
2018-12-19T02:04:38.716Z,8.25
2018-12-19T02:07:07.381Z,8.55
2018-12-19T02:09:35.963Z,8.13
2018-12-19T02:12:04.584Z,7.08
2018-12-19T02:14:33.153Z,8.68
2018-12-19T02:17:01.755Z,7.00
2018-12-19T02:19:30.646Z,7.05
2018-12-19T02:21:59.299Z,8.68
2018-12-19T02:24:27.851Z,11.15
2018-12-19T02:26:56.418Z,8.68
2018-12-19T02:29:25.060Z,7.00
2018-12-19T02:31:53.812Z,6.95
2018-12-19T02:34:22.613Z,8.93
2018-12-19T02:36:51.236Z,7.90
2018-12-19T02:39:19.818Z,8.83
2018-12-19T02:41:48.405Z,8.53
2018-12-19T02:44:16.988Z,8.95
2018-12-19T02:46:45.630Z,8.05
2018-12-19T02:49:14.234Z,7.67
2018-12-19T02:51:42.835Z,6.53
2018-12-19T02:54:11.450Z,8.10
2018-12-19T02:56:40.050Z,7.67
2018-12-19T02:59:08.635Z,9.65
2018-12-19T03:01:37.209Z,6.55
2018-12-19T03:04:05.901Z,7.20
2018-12-19T03:06:34.656Z,7.40
2018-12-19T03:09:04.013Z,8.43
2018-12-19T03:11:32.623Z,7.22
2018-12-19T03:14:01.407Z,9.38
2018-12-19T03:16:30.232Z,9.50
2018-12-19T03:18:58.828Z,7.50
2018-12-19T03:21:27.421Z,7.70
2018-12-19T03:23:55.989Z,7.58
2018-12-19T03:26:24.697Z,7.60
2018-12-19T03:28:53.255Z,7.75
2018-12-19T03:31:21.871Z,8.90
2018-12-19T03:33:50.531Z,7.60
2018-12-19T03:36:19.121Z,7.85
2018-12-19T03:38:47.691Z,6.55
2018-12-19T03:41:16.282Z,9.80
2018-12-19T03:43:44.870Z,9.68
2018-12-19T03:46:13.478Z,7.60
2018-12-19T03:48:47.291Z,7.20
2018-12-19T03:51:16.117Z,5.90
2018-12-19T03:53:44.824Z,8.80
2018-12-19T03:56:13.563Z,7.40
2018-12-19T03:58:42.783Z,7.67
2018-12-19T04:01:11.440Z,7.92
2018-12-19T04:03:40.075Z,6.70
2018-12-19T04:06:08.669Z,7.78
2018-12-19T04:08:37.266Z,7.03
2018-12-19T04:11:05.863Z,6.72
2018-12-19T04:13:34.472Z,7.15
2018-12-19T04:16:03.193Z,7.97
2018-12-19T04:18:31.899Z,7.30
2018-12-19T04:21:00.582Z,8.70
2018-12-19T04:23:29.174Z,7.30
2018-12-19T04:25:57.830Z,7.90
2018-12-19T04:28:26.445Z,6.62
2018-12-19T04:30:55.014Z,6.47
2018-12-19T04:33:23.633Z,7.37
2018-12-19T04:35:52.598Z,7.30
2018-12-19T04:38:21.413Z,7.35
2018-12-19T04:40:50.032Z,6.78
2018-12-19T04:43:18.656Z,6.42
2018-12-19T04:45:47.335Z,7.10
2018-12-19T04:48:15.954Z,6.17
2018-12-19T04:50:44.578Z,7.50
2018-12-19T04:53:14.624Z,7.22
2018-12-19T04:55:43.398Z,7.85
2018-12-19T04:58:12.036Z,8.43
2018-12-19T05:00:40.723Z,7.08
2018-12-19T05:03:09.271Z,8.00
2018-12-19T05:05:37.878Z,6.62
2018-12-19T05:08:06.471Z,6.67
2018-12-19T05:10:35.128Z,6.80
2018-12-19T05:13:03.930Z,7.22
2018-12-19T05:15:32.502Z,7.97
2018-12-19T05:18:01.140Z,6.55
2018-12-19T05:20:29.735Z,6.25
2018-12-19T05:22:58.399Z,7.37
2018-12-19T05:25:27.489Z,7.05
2018-12-19T05:27:56.176Z,6.50
2018-12-19T05:30:24.924Z,7.08
2018-12-19T05:32:53.503Z,6.58
2018-12-19T05:35:22.091Z,7.15
2018-12-19T05:37:50.676Z,11.22
2018-12-19T05:40:19.284Z,7.08
2018-12-19T05:42:47.886Z,6.67
2018-12-19T05:45:16.475Z,6.78
2018-12-19T05:47:45.053Z,7.42
2018-12-19T05:50:14.900Z,6.30
2018-12-19T05:52:43.708Z,7.08
2018-12-19T05:55:12.451Z,5.95
2018-12-19T05:57:41.228Z,6.22
2018-12-19T06:00:10.115Z,6.40
2018-12-19T06:02:38.700Z,7.58
2018-12-19T06:05:07.342Z,6.17
2018-12-19T06:07:35.952Z,7.08
2018-12-19T06:10:05.379Z,6.50
2018-12-19T06:12:33.968Z,7.08
2018-12-19T06:15:03.804Z,6.28
2018-12-19T06:17:32.459Z,6.25
2018-12-19T06:20:01.232Z,7.00
2018-12-19T06:22:29.943Z,6.90
2018-12-19T06:24:58.546Z,6.00
2018-12-19T06:27:27.160Z,6.25
2018-12-19T06:29:56.455Z,7.17
2018-12-19T06:32:25.099Z,6.90
2018-12-19T06:34:53.956Z,7.00
2018-12-19T06:37:22.584Z,8.63
2018-12-19T06:39:51.161Z,6.15
2018-12-19T06:42:19.950Z,7.53
2018-12-19T06:44:48.594Z,6.53
2018-12-19T06:47:17.182Z,8.18
2018-12-19T06:49:45.803Z,8.03
2018-12-19T06:52:14.477Z,6.17
2018-12-19T06:54:43.106Z,7.50
2018-12-19T06:57:11.751Z,7.80
2018-12-19T06:59:40.656Z,6.80
2018-12-19T07:02:09.234Z,6.33
2018-12-19T07:04:38.454Z,7.47
2018-12-19T07:07:07.036Z,8.13
2018-12-19T07:09:35.665Z,6.60
2018-12-19T07:12:04.367Z,6.42
2018-12-19T07:14:32.955Z,7.90
2018-12-19T07:17:01.648Z,5.85
2018-12-19T07:19:30.319Z,7.10
2018-12-19T07:21:58.908Z,7.05
2018-12-19T07:24:27.562Z,5.92
2018-12-19T07:26:56.136Z,7.78
2018-12-19T07:29:24.752Z,7.92
2018-12-19T07:31:53.339Z,8.50
2018-12-19T07:34:21.972Z,7.83
2018-12-19T07:36:50.584Z,6.92
2018-12-19T07:39:19.626Z,6.80
2018-12-19T07:41:48.314Z,5.95
2018-12-19T07:44:17.020Z,6.03
2018-12-19T07:46:45.624Z,8.05
2018-12-19T07:49:14.224Z,7.60
2018-12-19T07:51:42.831Z,12.78
2018-12-19T07:54:11.444Z,7.00
2018-12-19T07:56:40.093Z,10.58
2018-12-19T07:59:08.733Z,11.33
2018-12-19T08:01:37.397Z,9.13
2018-12-19T08:04:06.105Z,10.82
2018-12-19T08:06:34.916Z,12.10
2018-12-19T08:09:05.642Z,9.80
2018-12-19T08:11:34.236Z,9.48
2018-12-19T08:14:02.863Z,9.20
2018-12-19T08:16:31.454Z,7.17
2018-12-19T08:19:00.120Z,8.75
2018-12-19T08:21:28.690Z,7.17
2018-12-19T08:23:57.300Z,7.90
2018-12-19T08:26:25.986Z,8.70
2018-12-19T08:28:54.761Z,11.57
2018-12-19T08:31:23.514Z,10.63
2018-12-19T08:33:52.190Z,9.03
2018-12-19T08:36:21.224Z,9.65
2018-12-19T08:38:49.823Z,11.85
2018-12-19T08:41:18.454Z,19.42
2018-12-19T08:43:47.088Z,19.65
2018-12-19T08:46:15.723Z,13.68
2018-12-19T08:48:44.534Z,14.18
2018-12-19T08:51:13.229Z,17.57
2018-12-19T08:53:41.911Z,15.50
2018-12-19T08:56:10.547Z,14.25
2018-12-19T08:58:39.262Z,13.22
2018-12-19T09:01:07.888Z,10.20
2018-12-19T09:03:36.520Z,11.35
2018-12-19T09:06:05.126Z,9.03
2018-12-19T09:08:33.703Z,10.65
2018-12-19T09:11:05.692Z,10.20
2018-12-19T09:13:32.999Z,8.03
2018-12-19T09:16:01.878Z,9.80
2018-12-19T09:18:30.584Z,15.60
2018-12-19T09:20:59.214Z,13.00
2018-12-19T09:23:27.826Z,12.18
2018-12-19T09:25:56.407Z,13.22
2018-12-19T09:28:24.991Z,9.48
2018-12-19T09:30:53.596Z,10.78
2018-12-19T09:33:27.400Z,10.88
2018-12-19T09:35:52.784Z,10.60
2018-12-19T09:38:21.399Z,10.45
2018-12-19T09:40:50.080Z,9.48
2018-12-19T09:43:18.795Z,12.98
2018-12-19T09:45:47.443Z,11.83
2018-12-19T09:48:16.005Z,13.60
2018-12-19T09:50:44.628Z,9.40
2018-12-19T09:53:13.680Z,12.25
2018-12-19T09:55:42.288Z,9.68
2018-12-19T09:58:11.740Z,8.90
2018-12-19T10:00:40.375Z,7.95
2018-12-19T10:03:08.954Z,8.95
2018-12-19T10:05:37.559Z,12.78
2018-12-19T10:08:06.187Z,9.85
2018-12-19T10:10:34.846Z,10.30
2018-12-19T10:13:03.461Z,13.55
2018-12-19T10:15:32.130Z,10.53
2018-12-19T10:18:00.773Z,9.05
2018-12-19T10:20:29.370Z,8.95
2018-12-19T10:22:57.976Z,11.80
2018-12-19T10:25:26.625Z,8.33
2018-12-19T10:27:55.206Z,6.97
2018-12-19T10:30:23.855Z,8.88
2018-12-19T10:32:55.745Z,9.28
2018-12-19T10:35:26.055Z,9.98
2018-12-19T10:37:54.671Z,7.62
2018-12-19T10:40:23.364Z,7.75
2018-12-19T10:42:51.971Z,9.18
2018-12-19T10:45:20.604Z,9.75
2018-12-19T10:47:50.192Z,10.55
2018-12-19T10:50:18.785Z,7.65
2018-12-19T10:52:47.364Z,9.78
2018-12-19T10:55:16.075Z,8.43
2018-12-19T10:57:44.725Z,8.88
2018-12-19T11:00:19.208Z,7.60
2018-12-19T11:02:47.857Z,7.15
2018-12-19T11:05:16.450Z,6.22
2018-12-19T11:07:45.222Z,6.53
2018-12-19T11:10:13.904Z,8.58
2018-12-19T11:12:42.558Z,9.15
2018-12-19T11:15:11.312Z,11.65
2018-12-19T11:17:39.987Z,8.70
2018-12-19T11:20:10.485Z,7.75
2018-12-19T11:22:39.159Z,7.10
2018-12-19T11:25:08.110Z,7.08
2018-12-19T11:27:36.785Z,9.53
2018-12-19T11:30:07.528Z,7.67
2018-12-19T11:32:36.117Z,7.33
2018-12-19T11:35:05.626Z,7.85
2018-12-19T11:37:34.294Z,7.80
2018-12-19T11:40:03.131Z,8.83
2018-12-19T11:42:31.952Z,6.28
2018-12-19T11:45:00.612Z,8.78
2018-12-19T11:47:29.403Z,7.70
2018-12-19T11:49:58.005Z,6.33
2018-12-19T11:52:26.623Z,8.60
2018-12-19T11:54:55.272Z,7.08
2018-12-19T11:57:24.120Z,7.20
2018-12-19T11:59:52.732Z,5.65
2018-12-19T12:02:21.447Z,8.08
2018-12-19T12:04:50.055Z,7.40
2018-12-19T12:07:18.861Z,5.80
2018-12-19T12:09:47.481Z,7.58
2018-12-19T12:12:16.129Z,6.65
2018-12-19T12:14:44.858Z,6.55
2018-12-19T12:17:13.943Z,5.85
2018-12-19T12:19:42.657Z,7.90
2018-12-19T12:22:11.332Z,6.47
2018-12-19T12:24:40.060Z,8.43
2018-12-19T12:27:08.758Z,6.80
2018-12-19T12:29:37.433Z,5.55
2018-12-19T12:32:06.151Z,7.28
2018-12-19T12:34:34.882Z,6.90
2018-12-19T12:37:03.619Z,6.85
2018-12-19T12:39:32.227Z,6.87
2018-12-19T12:42:00.960Z,6.45
2018-12-19T12:44:30.017Z,6.70
2018-12-19T12:46:58.678Z,6.33
2018-12-19T12:49:27.355Z,6.50
2018-12-19T12:51:55.991Z,6.72
2018-12-19T12:54:24.666Z,6.80
2018-12-19T12:56:53.299Z,6.72
2018-12-19T12:59:21.992Z,7.40
2018-12-19T13:01:50.774Z,7.80
2018-12-19T13:04:19.371Z,6.53
2018-12-19T13:06:47.931Z,6.47
2018-12-19T13:09:16.639Z,7.47
2018-12-19T13:11:45.304Z,7.12
2018-12-19T13:14:13.956Z,7.72
2018-12-19T13:16:42.606Z,6.87
2018-12-19T13:19:11.204Z,6.50
2018-12-19T13:21:39.850Z,5.90
2018-12-19T13:24:08.543Z,7.00
2018-12-19T13:26:37.204Z,7.08
2018-12-19T13:29:06.022Z,8.28
2018-12-19T13:31:34.698Z,7.70
2018-12-19T13:34:03.352Z,5.87
2018-12-19T13:36:32.167Z,6.03
2018-12-19T13:39:00.852Z,6.25
2018-12-19T13:41:29.482Z,5.95
2018-12-19T13:43:58.116Z,5.97
2018-12-19T13:46:26.777Z,8.28
2018-12-19T13:48:55.413Z,7.75
2018-12-19T13:51:24.134Z,7.47
2018-12-19T13:53:52.788Z,6.95
2018-12-19T13:56:21.453Z,8.83
2018-12-19T13:58:50.104Z,6.70
2018-12-19T14:01:18.685Z,8.10
2018-12-19T14:03:47.329Z,7.55
2018-12-19T14:06:15.942Z,7.67
2018-12-19T14:08:44.559Z,7.58
2018-12-19T14:11:13.149Z,7.08
2018-12-19T14:13:41.782Z,5.87
2018-12-19T14:16:10.414Z,5.53
2018-12-19T14:18:39.069Z,5.35
2018-12-19T14:21:07.741Z,6.25
2018-12-19T14:23:36.457Z,6.17
2018-12-19T14:26:05.133Z,6.65
2018-12-19T14:28:33.796Z,6.67
2018-12-19T14:31:02.443Z,5.95
2018-12-19T14:33:31.142Z,6.78
2018-12-19T14:36:00.453Z,6.10
2018-12-19T14:38:29.138Z,5.62
2018-12-19T14:40:57.757Z,5.40
2018-12-19T14:43:26.343Z,5.25
2018-12-19T14:45:57.123Z,7.22
2018-12-19T14:48:25.756Z,4.80
2018-12-19T14:50:54.650Z,4.95
2018-12-19T14:53:23.336Z,5.40
2018-12-19T14:55:52.140Z,6.30
2018-12-19T14:58:20.750Z,6.22
2018-12-19T15:00:49.372Z,4.78
2018-12-19T15:03:17.992Z,5.37
2018-12-19T15:05:46.622Z,5.83
2018-12-19T15:08:15.272Z,6.15
2018-12-19T15:10:44.075Z,5.40
2018-12-19T15:13:12.992Z,5.53
2018-12-19T15:15:43.733Z,5.47
2018-12-19T15:18:12.376Z,5.45
2018-12-19T15:20:41.280Z,5.85
2018-12-19T15:23:09.903Z,5.12
2018-12-19T15:25:38.613Z,5.75
2018-12-19T15:28:07.276Z,4.90
2018-12-19T15:30:35.925Z,4.95
2018-12-19T15:33:04.994Z,4.55
2018-12-19T15:35:33.620Z,4.95
2018-12-19T15:38:02.297Z,4.67
2018-12-19T15:40:31.008Z,4.47
2018-12-19T15:42:59.670Z,4.40
2018-12-19T15:45:28.329Z,4.72
2018-12-19T15:47:57.006Z,4.28
2018-12-19T15:50:25.725Z,4.95
2018-12-19T15:52:54.379Z,4.70
2018-12-19T15:55:23.033Z,4.78
2018-12-19T15:57:51.717Z,4.03
2018-12-19T16:00:20.349Z,4.92
2018-12-19T16:02:49.005Z,4.30
2018-12-19T16:05:17.711Z,5.30
2018-12-19T16:07:46.410Z,4.83
2018-12-19T16:10:15.719Z,4.83
2018-12-19T16:12:44.340Z,5.03
2018-12-19T16:15:13.135Z,5.87
2018-12-19T16:17:41.798Z,4.58
2018-12-19T16:20:10.462Z,4.40
2018-12-19T16:22:39.103Z,4.22
2018-12-19T16:25:07.802Z,4.67
2018-12-19T16:27:36.443Z,4.83
2018-12-19T16:30:05.729Z,4.35
2018-12-19T16:32:34.358Z,5.05
2018-12-19T16:35:03.019Z,3.95
2018-12-19T16:37:31.748Z,4.80
2018-12-19T16:40:00.553Z,4.65
2018-12-19T16:42:29.234Z,4.65
2018-12-19T16:44:57.880Z,4.00
2018-12-19T16:47:26.557Z,5.25
2018-12-19T16:49:55.177Z,4.85
2018-12-19T16:52:23.827Z,5.50
2018-12-19T16:54:52.585Z,5.20
2018-12-19T16:57:21.247Z,4.92
2018-12-19T16:59:50.007Z,4.35
2018-12-19T17:02:18.673Z,7.17
2018-12-19T17:04:47.396Z,4.50
2018-12-19T17:07:16.059Z,5.12
2018-12-19T17:09:44.747Z,4.28
2018-12-19T17:12:13.613Z,5.28
2018-12-19T17:14:42.264Z,4.22
2018-12-19T17:17:11.750Z,6.10
2018-12-19T17:19:40.476Z,5.65
2018-12-19T17:22:09.139Z,4.95
2018-12-19T17:24:41.267Z,5.10
2018-12-19T17:27:09.900Z,5.15
2018-12-19T17:29:38.608Z,5.58
2018-12-19T17:32:07.862Z,5.47
2018-12-19T17:34:36.593Z,5.12
2018-12-19T17:37:05.408Z,6.92
2018-12-19T17:39:34.210Z,4.90
2018-12-19T17:42:03.022Z,5.70
2018-12-19T17:44:31.802Z,5.17
2018-12-19T17:47:31.306Z,5.80
2018-12-19T17:49:59.992Z,7.20
2018-12-19T17:52:28.678Z,6.15
2018-12-19T17:54:56.285Z,5.20
2018-12-19T17:57:24.980Z,6.80
2018-12-19T17:59:53.679Z,6.22
2018-12-19T18:02:22.844Z,5.12
2018-12-19T18:04:51.600Z,5.75
2018-12-19T18:07:20.259Z,6.53
2018-12-19T18:09:47.923Z,5.50
2018-12-19T18:12:16.654Z,6.50
2018-12-19T18:14:45.364Z,6.03
2018-12-19T18:17:14.067Z,6.17
2018-12-19T18:19:42.843Z,5.58
2018-12-19T18:22:11.531Z,6.92
2018-12-19T18:24:40.258Z,6.60
2018-12-19T18:27:08.985Z,6.35
2018-12-19T18:29:37.643Z,6.10
2018-12-19T18:32:06.475Z,7.62
2018-12-19T18:34:35.212Z,5.25
2018-12-19T18:37:04.055Z,5.90
2018-12-19T18:39:32.733Z,6.37
2018-12-19T18:42:01.468Z,6.83
2018-12-19T18:44:30.156Z,6.55
2018-12-19T18:46:58.844Z,6.75
2018-12-19T18:49:27.548Z,6.15
2018-12-19T18:51:56.494Z,6.53
2018-12-19T18:54:25.102Z,6.37
2018-12-19T18:56:54.047Z,6.47
2018-12-19T18:59:22.844Z,7.53
2018-12-19T19:01:51.615Z,7.62
2018-12-19T19:04:20.425Z,6.92
2018-12-19T19:06:49.205Z,5.90
2018-12-19T19:09:17.882Z,7.65
2018-12-19T19:11:46.672Z,7.45
2018-12-19T19:14:15.408Z,8.55
2018-12-19T19:16:44.250Z,6.60
2018-12-19T19:19:13.038Z,6.45
2018-12-19T19:21:42.722Z,6.58
2018-12-19T19:24:11.455Z,6.42
2018-12-19T19:26:40.301Z,6.87
2018-12-19T19:29:09.042Z,5.97
2018-12-19T19:31:37.843Z,6.08
2018-12-19T19:34:06.642Z,10.18
2018-12-19T19:36:35.393Z,6.78
2018-12-19T19:39:06.275Z,6.05
2018-12-19T19:41:35.175Z,9.88
2018-12-19T19:44:04.036Z,8.03
2018-12-19T19:46:33.183Z,7.12
2018-12-19T19:49:02.007Z,6.45
2018-12-19T19:51:30.803Z,7.08
2018-12-19T19:53:59.580Z,9.08
2018-12-19T19:56:28.354Z,8.43
2018-12-19T19:58:57.265Z,9.05
2018-12-19T20:01:25.895Z,7.53
2018-12-19T20:03:54.750Z,9.13
2018-12-19T20:06:23.444Z,7.75
2018-12-19T20:08:52.106Z,9.18
2018-12-19T20:11:20.959Z,9.05
2018-12-19T20:13:50.144Z,8.40
2018-12-19T20:16:18.892Z,8.18
2018-12-19T20:18:47.646Z,10.25
2018-12-19T20:21:16.327Z,9.78
2018-12-19T20:23:45.102Z,8.18
2018-12-19T20:26:13.783Z,8.90
2018-12-19T20:28:42.472Z,9.98
2018-12-19T20:31:11.225Z,9.60
2018-12-19T20:33:39.899Z,8.85
2018-12-19T20:36:08.599Z,8.80
2018-12-19T20:38:37.294Z,9.45
2018-12-19T20:41:05.972Z,8.85
2018-12-19T20:43:39.891Z,9.88
2018-12-19T20:46:05.777Z,9.75
2018-12-19T20:48:34.519Z,7.90
2018-12-19T20:51:03.265Z,8.55
2018-12-19T20:53:32.247Z,8.85
2018-12-19T20:56:03.812Z,8.65
2018-12-19T20:58:31.820Z,10.55
2018-12-19T21:01:00.520Z,9.20
2018-12-19T21:03:29.157Z,9.75
2018-12-19T21:05:57.819Z,9.23
2018-12-19T21:08:26.544Z,9.85
2018-12-19T21:10:55.198Z,9.18
2018-12-19T21:13:23.936Z,9.78
2018-12-19T21:15:52.698Z,9.13
2018-12-19T21:18:26.650Z,10.45
2018-12-19T21:20:55.267Z,10.70
2018-12-19T21:23:24.007Z,8.78
2018-12-19T21:25:52.699Z,10.75
2018-12-19T21:28:21.393Z,11.57
2018-12-19T21:30:50.081Z,9.00
2018-12-19T21:33:18.885Z,10.15
2018-12-19T21:35:47.665Z,10.88
2018-12-19T21:38:16.349Z,9.63
2018-12-19T21:40:44.123Z,9.90
2018-12-19T21:43:12.856Z,9.23
2018-12-19T21:45:40.503Z,8.58
2018-12-19T21:48:09.171Z,10.00
2018-12-19T21:50:37.837Z,8.75
2018-12-19T21:53:06.464Z,9.23
2018-12-19T21:55:35.152Z,10.65
2018-12-19T21:58:03.811Z,9.53
2018-12-19T22:00:37.638Z,10.00
2018-12-19T22:03:07.254Z,11.53
2018-12-19T22:05:35.902Z,8.85
2018-12-19T22:08:04.858Z,11.15
2018-12-19T22:10:33.667Z,9.48
2018-12-19T22:13:01.279Z,11.75
2018-12-19T22:15:29.994Z,10.23
2018-12-19T22:19:07.566Z,11.57
2018-12-19T22:21:36.215Z,12.47
2018-12-19T22:24:05.351Z,11.88
2018-12-19T22:26:34.103Z,10.90
2018-12-19T22:29:03.429Z,11.50
2018-12-19T22:31:32.167Z,10.68
2018-12-19T22:34:00.816Z,12.33
2018-12-19T22:36:29.526Z,10.95
2018-12-19T22:38:58.306Z,12.37
2018-12-19T22:41:27.559Z,13.50
2018-12-19T22:43:55.327Z,19.80
2018-12-19T22:46:23.988Z,16.07
2018-12-19T22:48:52.679Z,23.62
2018-12-19T22:51:21.519Z,26.35
2018-12-19T22:53:50.288Z,18.90
2018-12-19T22:56:19.012Z,16.12
2018-12-19T22:58:47.825Z,23.62
2018-12-19T23:01:21.996Z,16.80
2018-12-19T23:03:55.856Z,19.57
2018-12-19T23:06:24.626Z,14.45
2018-12-19T23:08:53.404Z,15.95
2018-12-19T23:11:22.058Z,16.52
2018-12-19T23:13:50.831Z,15.38
2018-12-19T23:16:19.631Z,13.93
2018-12-19T23:18:48.292Z,15.72
2018-12-19T23:21:17.032Z,13.88
2018-12-19T23:23:45.875Z,15.78
2018-12-19T23:26:14.745Z,13.28
2018-12-19T23:28:43.564Z,13.25
2018-12-19T23:31:12.235Z,13.28
2018-12-19T23:33:40.855Z,17.42
2018-12-19T23:36:09.902Z,13.65
2018-12-19T23:38:38.797Z,20.75
2018-12-19T23:41:07.472Z,16.07
2018-12-19T23:43:36.204Z,14.80
2018-12-19T23:46:04.950Z,19.27
2018-12-19T23:48:33.676Z,14.25
2018-12-19T23:51:02.671Z,14.10
2018-12-19T23:53:31.480Z,11.88
2018-12-19T23:56:00.936Z,15.80
2018-12-19T23:58:29.862Z,14.05
